CheckWX is a tool to help pilots better visualize weather data.  It is not intended as a substitute for an official pre-flight weather briefing.

11:16:35 UTC

SCQP METAR
Temuco Airport
Temuco, Switzerland
Current

17 mins ago

SCQP 181100Z 18001KT 9999 OVC005 12/12 Q1012
Observed
Apr-18 @ 11:00 UTC
Wind
  • 180° at 1 KTS
Visibility
10,000+ meters
Flight Rules
IFR
Cloud Levels
  • Overcast at 500' AGL
Temperature
12°C / 54°F
Dewpoint
12°C / 54°F
Humidity
100%
Altimeter
29.88" Hg
Pressure
1011.92 hPa
Previous

1 hour ago

SCQP 181000Z 00000KT 6000 OVC006 12/12 Q1012
Observed
Apr-18 @ 10:00 UTC
Visibility
6,003 meters
Flight Rules
IFR
Cloud Levels
  • Overcast at 600' AGL
Temperature
12°C / 54°F
Dewpoint
12°C / 54°F
Humidity
100%
Altimeter
29.88" Hg
Pressure
1011.92 hPa
Previous

2 hours ago

SCQP 180900Z 00000KT 1500 BR OVC004 11/11 Q1012
Observed
Apr-18 @ 09:00 UTC
Visibility
1,497 meters
Flight Rules
LIFR
Conditions
Mist
Cloud Levels
  • Overcast at 400' AGL
Temperature
11°C / 52°F
Dewpoint
11°C / 52°F
Humidity
100%
Altimeter
29.88" Hg
Pressure
1011.92 hPa